KCVG

Cincinnati / Northern Kentucky International Airport

Covington, Kentucky, USA
METAR KCVG 180152Z 21003KT 10SM BKN160 BKN200 22/21 A3000 RMK AO2 SLP151 T02220211
Observed Flight Rules
Aug-18 @ 01:52 UTC (38 minutes ago) Visual Flight Rules
Wind Visibility Clouds
210° at 3 knots 10 miles
  • Broken at 16,000' AGL
  • Broken at 20,000' AGL
Temperatures Readings
Current 22°C / 72°F
Dewpoint 21°C / 70°F
Humidity 94%
Altimeter 30" Hg
Pressure 1015.1 hPa
Elevation 269
METAR KCVG 180152Z 21003KT 10SM BKN160 BKN200 22/21 A3000 RMK AO2 SLP151 T02220211
Observed Flight Rules
Aug-18 @ 01:52 UTC
(38 minutes ago)
VFR
Wind Visibility
210° at 3 knots 10 miles
Clouds
  • Broken at 16,000' AGL
  • Broken at 20,000' AGL
Temperature Dewpoint
22°C / 72°F 21°C / 70°F
Humidity Altimeter Pressure
94% 30" Hg 1015.1 hPa